CheckWX is a tool to help pilots better visualize weather data.  It is not intended as a substitute for an official pre-flight weather briefing.

17:57:39 UTC

LJPZ METAR
Portoroz Airport
Portoroz, Slovenia
Current

28 mins ago

LJPZ 171730Z 13002KT CAVOK 15/13 Q1018
Observed
Oct-17 @ 17:30 UTC
Wind
  • 130° at 2 KTS
Visibility
10,000+ meters
Flight Rules
VFR
Cloud Levels
  • Clear skies
Temperature
15°C / 59°F
Dewpoint
13°C / 55°F
Humidity
88%
Altimeter
30.06" Hg
Pressure
1017.92 hPa
Previous

58 mins ago

LJPZ 171700Z VRB02KT CAVOK 16/14 Q1018
Observed
Oct-17 @ 17:00 UTC
Wind
  • Variable at 2 KTS
Visibility
10,000+ meters
Flight Rules
VFR
Cloud Levels
  • Clear skies
Temperature
16°C / 61°F
Dewpoint
14°C / 57°F
Humidity
88%
Altimeter
30.06" Hg
Pressure
1017.92 hPa
Previous

1 hour ago

LJPZ 171630Z 10003KT 080V140 CAVOK 17/14 Q1018
Observed
Oct-17 @ 16:30 UTC
Wind
  • 100° at 3 KTS
Visibility
10,000+ meters
Flight Rules
VFR
Cloud Levels
  • Clear skies
Temperature
17°C / 63°F
Dewpoint
14°C / 57°F
Humidity
83%
Altimeter
30.06" Hg
Pressure
1017.92 hPa